sensor_id;sensor_type;location;lat;lon;timestamp;pressure;altitude;pressure_sealevel;temperature;humidity
71151;BME280;59071;42.138;24.768;2022-11-23T00:01:32;98507.94;;;11.80;71.58
71151;BME280;59071;42.138;24.768;2022-11-23T00:04:01;98503.91;;;11.78;71.66
71151;BME280;59071;42.138;24.768;2022-11-23T00:06:27;98504.84;;;12.00;70.80
71151;BME280;59071;42.138;24.768;2022-11-23T00:08:53;98511.16;;;11.94;70.70
71151;BME280;59071;42.138;24.768;2022-11-23T00:11:20;98522.63;;;11.95;70.83
71151;BME280;59071;42.138;24.768;2022-11-23T00:13:46;98511.16;;;11.94;70.96
71151;BME280;59071;42.138;24.768;2022-11-23T00:16:14;98518.59;;;11.80;70.27
71151;BME280;59071;42.138;24.768;2022-11-23T00:18:40;98515.09;;;11.91;70.61
71151;BME280;59071;42.138;24.768;2022-11-23T00:21:11;98506.72;;;11.54;72.04
71151;BME280;59071;42.138;24.768;2022-11-23T00:23:37;98497.19;;;11.58;71.30
71151;BME280;59071;42.138;24.768;2022-11-23T00:26:03;98504.78;;;11.66;71.38
71151;BME280;59071;42.138;24.768;2022-11-23T00:28:28;98509.97;;;11.73;71.01
71151;BME280;59071;42.138;24.768;2022-11-23T00:30:54;98510.22;;;11.88;70.20
71151;BME280;59071;42.138;24.768;2022-11-23T00:33:19;98500.28;;;11.84;69.80
71151;BME280;59071;42.138;24.768;2022-11-23T00:35:45;98496.47;;;11.63;70.03
71151;BME280;59071;42.138;24.768;2022-11-23T00:38:10;98477.69;;;11.69;70.17
71151;BME280;59071;42.138;24.768;2022-11-23T00:40:36;98474.53;;;11.89;68.96
71151;BME280;59071;42.138;24.768;2022-11-23T00:43:02;98488.34;;;11.69;69.66
71151;BME280;59071;42.138;24.768;2022-11-23T00:45:27;98489.59;;;11.67;71.32
71151;BME280;59071;42.138;24.768;2022-11-23T00:47:52;98480.09;;;11.54;72.73
71151;BME280;59071;42.138;24.768;2022-11-23T00:50:18;98470.38;;;11.48;72.27
71151;BME280;59071;42.138;24.768;2022-11-23T00:52:43;98471.56;;;11.40;74.22
71151;BME280;59071;42.138;24.768;2022-11-23T00:55:09;98476.50;;;11.31;75.52
71151;BME280;59071;42.138;24.768;2022-11-23T00:57:34;98477.44;;;11.25;75.86
71151;BME280;59071;42.138;24.768;2022-11-23T01:00:00;98476.22;;;11.62;74.51
71151;BME280;59071;42.138;24.768;2022-11-23T01:02:25;98465.47;;;11.73;74.58
71151;BME280;59071;42.138;24.768;2022-11-23T01:04:51;98467.25;;;11.85;75.78
71151;BME280;59071;42.138;24.768;2022-11-23T01:07:16;98464.41;;;11.74;74.74
71151;BME280;59071;42.138;24.768;2022-11-23T01:09:41;98460.69;;;11.59;77.23
71151;BME280;59071;42.138;24.768;2022-11-23T01:12:07;98450.13;;;11.47;76.90
71151;BME280;59071;42.138;24.768;2022-11-23T01:14:33;98426.41;;;11.17;79.94
71151;BME280;59071;42.138;24.768;2022-11-23T01:16:58;98422.84;;;11.11;80.42
71151;BME280;59071;42.138;24.768;2022-11-23T01:19:23;98421.34;;;10.86;83.32
71151;BME280;59071;42.138;24.768;2022-11-23T01:21:49;98419.53;;;10.75;83.72
71151;BME280;59071;42.138;24.768;2022-11-23T01:24:19;98421.09;;;10.88;83.94
71151;BME280;59071;42.138;24.768;2022-11-23T01:26:49;98412.69;;;10.79;85.35
71151;BME280;59071;42.138;24.768;2022-11-23T01:29:15;98363.97;;;10.50;87.14
71151;BME280;59071;42.138;24.768;2022-11-23T01:31:41;98349.09;;;10.37;88.53
71151;BME280;59071;42.138;24.768;2022-11-23T01:34:06;98347.28;;;10.54;87.99
71151;BME280;59071;42.138;24.768;2022-11-23T01:36:33;98350.91;;;10.48;89.50
71151;BME280;59071;42.138;24.768;2022-11-23T01:39:00;98363.25;;;10.66;88.93
71151;BME280;59071;42.138;24.768;2022-11-23T01:41:29;98375.16;;;10.64;88.45
71151;BME280;59071;42.138;24.768;2022-11-23T01:43:55;98383.22;;;10.69;88.66
71151;BME280;59071;42.138;24.768;2022-11-23T01:46:21;98409.59;;;10.99;86.51
71151;BME280;59071;42.138;24.768;2022-11-23T01:48:56;98405.91;;;11.17;86.96
71151;BME280;59071;42.138;24.768;2022-11-23T01:51:34;98389.81;;;11.24;86.81
71151;BME280;59071;42.138;24.768;2022-11-23T01:54:07;98380.75;;;11.25;86.99
71151;BME280;59071;42.138;24.768;2022-11-23T01:56:38;98361.72;;;11.50;84.63
71151;BME280;59071;42.138;24.768;2022-11-23T01:59:08;98355.25;;;11.12;85.57
71151;BME280;59071;42.138;24.768;2022-11-23T02:01:35;98380.19;;;11.23;85.76
71151;BME280;59071;42.138;24.768;2022-11-23T02:04:01;98403.69;;;11.26;85.94
71151;BME280;59071;42.138;24.768;2022-11-23T02:06:27;98417.81;;;11.43;86.50
71151;BME280;59071;42.138;24.768;2022-11-23T02:08:54;98407.34;;;11.37;85.63
71151;BME280;59071;42.138;24.768;2022-11-23T02:11:20;98394.97;;;11.47;85.35
71151;BME280;59071;42.138;24.768;2022-11-23T02:13:47;98398.94;;;11.62;85.26
71151;BME280;59071;42.138;24.768;2022-11-23T02:16:15;98395.94;;;11.41;84.49
71151;BME280;59071;42.138;24.768;2022-11-23T02:18:43;98385.13;;;11.48;85.74
71151;BME280;59071;42.138;24.768;2022-11-23T02:21:10;98386.91;;;11.59;84.23
71151;BME280;59071;42.138;24.768;2022-11-23T02:26:17;98406.69;;;11.29;86.83
71151;BME280;59071;42.138;24.768;2022-11-23T02:28:49;98416.09;;;11.20;86.75
71151;BME280;59071;42.138;24.768;2022-11-23T02:31:17;98401.34;;;11.29;86.18
71151;BME280;59071;42.138;24.768;2022-11-23T02:33:42;98401.06;;;10.97;86.23
71151;BME280;59071;42.138;24.768;2022-11-23T02:36:41;98383.75;;;10.83;87.21
71151;BME280;59071;42.138;24.768;2022-11-23T02:41:42;98378.19;;;10.84;88.21
71151;BME280;59071;42.138;24.768;2022-11-23T02:44:17;98385.81;;;10.52;89.47
71151;BME280;59071;42.138;24.768;2022-11-23T02:46:45;98391.59;;;10.61;87.51
71151;BME280;59071;42.138;24.768;2022-11-23T02:49:10;98380.78;;;10.27;88.44
71151;BME280;59071;42.138;24.768;2022-11-23T02:51:35;98381.22;;;10.35;87.09
71151;BME280;59071;42.138;24.768;2022-11-23T02:54:01;98366.34;;;10.34;86.57
71151;BME280;59071;42.138;24.768;2022-11-23T02:56:26;98356.16;;;10.31;86.01
71151;BME280;59071;42.138;24.768;2022-11-23T02:58:52;98373.53;;;10.63;84.32
71151;BME280;59071;42.138;24.768;2022-11-23T03:01:17;98393.13;;;10.45;85.48
71151;BME280;59071;42.138;24.768;2022-11-23T03:03:42;98373.00;;;10.49;85.75
71151;BME280;59071;42.138;24.768;2022-11-23T03:06:08;98372.91;;;10.44;85.76
71151;BME280;59071;42.138;24.768;2022-11-23T03:08:33;98378.50;;;10.18;85.93
71151;BME280;59071;42.138;24.768;2022-11-23T03:11:00;98396.63;;;10.22;85.67
71151;BME280;59071;42.138;24.768;2022-11-23T03:13:26;98396.97;;;10.37;85.14
71151;BME280;59071;42.138;24.768;2022-11-23T03:15:54;98375.72;;;10.13;85.10
71151;BME280;59071;42.138;24.768;2022-11-23T03:18:21;98374.00;;;9.84;85.15
71151;BME280;59071;42.138;24.768;2022-11-23T03:20:46;98369.59;;;10.01;84.21
71151;BME280;59071;42.138;24.768;2022-11-23T03:23:12;98357.69;;;10.15;83.48
71151;BME280;59071;42.138;24.768;2022-11-23T03:25:37;98356.72;;;10.22;83.62
71151;BME280;59071;42.138;24.768;2022-11-23T03:28:03;98339.66;;;10.17;84.29
71151;BME280;59071;42.138;24.768;2022-11-23T03:30:28;98359.84;;;10.42;82.69
71151;BME280;59071;42.138;24.768;2022-11-23T03:32:55;98343.66;;;10.44;81.67
71151;BME280;59071;42.138;24.768;2022-11-23T03:35:20;98343.78;;;10.37;82.46
71151;BME280;59071;42.138;24.768;2022-11-23T03:37:46;98360.88;;;10.41;82.70
71151;BME280;59071;42.138;24.768;2022-11-23T03:40:11;98360.06;;;10.41;82.37
71151;BME280;59071;42.138;24.768;2022-11-23T03:42:39;98352.06;;;10.52;81.64
71151;BME280;59071;42.138;24.768;2022-11-23T03:45:05;98352.72;;;10.60;82.02
71151;BME280;59071;42.138;24.768;2022-11-23T03:47:31;98357.06;;;10.37;82.36
71151;BME280;59071;42.138;24.768;2022-11-23T03:49:56;98360.72;;;10.60;82.00
71151;BME280;59071;42.138;24.768;2022-11-23T03:52:21;98374.66;;;10.26;82.41
71151;BME280;59071;42.138;24.768;2022-11-23T03:54:47;98375.72;;;10.13;83.42
71151;BME280;59071;42.138;24.768;2022-11-23T03:57:12;98376.41;;;10.21;83.45
71151;BME280;59071;42.138;24.768;2022-11-23T03:59:38;98371.88;;;10.21;82.96
71151;BME280;59071;42.138;24.768;2022-11-23T04:02:03;98383.25;;;9.93;83.79
71151;BME280;59071;42.138;24.768;2022-11-23T04:04:30;98378.94;;;10.15;82.77
71151;BME280;59071;42.138;24.768;2022-11-23T04:06:55;98385.53;;;10.01;83.83
71151;BME280;59071;42.138;24.768;2022-11-23T04:09:21;98385.91;;;9.69;84.14
71151;BME280;59071;42.138;24.768;2022-11-23T04:11:46;98387.50;;;10.06;83.54
71151;BME280;59071;42.138;24.768;2022-11-23T04:14:12;98389.44;;;10.22;82.27
71151;BME280;59071;42.138;24.768;2022-11-23T04:16:37;98390.28;;;10.23;83.22
71151;BME280;59071;42.138;24.768;2022-11-23T04:19:03;98383.44;;;10.27;81.63
71151;BME280;59071;42.138;24.768;2022-11-23T04:21:28;98375.84;;;10.18;82.38
71151;BME280;59071;42.138;24.768;2022-11-23T04:23:53;98369.47;;;10.08;82.02
71151;BME280;59071;42.138;24.768;2022-11-23T04:26:19;98359.28;;;10.28;81.36
71151;BME280;59071;42.138;24.768;2022-11-23T04:28:44;98358.13;;;10.36;81.79
71151;BME280;59071;42.138;24.768;2022-11-23T04:31:10;98356.50;;;10.23;80.99
71151;BME280;59071;42.138;24.768;2022-11-23T04:33:35;98368.84;;;10.29;80.90
71151;BME280;59071;42.138;24.768;2022-11-23T04:36:01;98365.28;;;10.47;80.14
71151;BME280;59071;42.138;24.768;2022-11-23T04:38:26;98375.34;;;10.33;80.78
71151;BME280;59071;42.138;24.768;2022-11-23T04:40:51;98372.16;;;10.60;80.57
71151;BME280;59071;42.138;24.768;2022-11-23T04:43:17;98366.25;;;10.58;78.65
71151;BME280;59071;42.138;24.768;2022-11-23T04:45:43;98364.59;;;10.16;82.42
71151;BME280;59071;42.138;24.768;2022-11-23T04:48:09;98370.59;;;10.24;81.42
71151;BME280;59071;42.138;24.768;2022-11-23T04:50:34;98381.34;;;10.29;80.66
71151;BME280;59071;42.138;24.768;2022-11-23T04:53:02;98391.78;;;10.30;80.51
71151;BME280;59071;42.138;24.768;2022-11-23T04:55:27;98385.03;;;10.51;79.66
71151;BME280;59071;42.138;24.768;2022-11-23T04:57:53;98378.34;;;10.37;80.19
71151;BME280;59071;42.138;24.768;2022-11-23T05:00:18;98377.31;;;10.26;80.35
71151;BME280;59071;42.138;24.768;2022-11-23T05:02:44;98394.53;;;10.47;79.83
71151;BME280;59071;42.138;24.768;2022-11-23T05:05:09;98390.03;;;10.36;79.28
71151;BME280;59071;42.138;24.768;2022-11-23T05:07:35;98382.16;;;10.41;79.48
71151;BME280;59071;42.138;24.768;2022-11-23T05:10:01;98382.13;;;10.53;79.72
71151;BME280;59071;42.138;24.768;2022-11-23T05:12:26;98379.44;;;10.65;79.27
71151;BME280;59071;42.138;24.768;2022-11-23T05:14:52;98366.59;;;10.62;79.53
71151;BME280;59071;42.138;24.768;2022-11-23T05:17:17;98372.63;;;10.86;82.65
71151;BME280;59071;42.138;24.768;2022-11-23T05:19:42;98367.25;;;10.69;79.15
71151;BME280;59071;42.138;24.768;2022-11-23T05:22:09;98363.88;;;10.45;80.02
71151;BME280;59071;42.138;24.768;2022-11-23T05:24:35;98370.31;;;10.61;79.53
71151;BME280;59071;42.138;24.768;2022-11-23T05:27:00;98357.66;;;10.39;79.48
71151;BME280;59071;42.138;24.768;2022-11-23T05:29:25;98363.59;;;10.58;79.36
71151;BME280;59071;42.138;24.768;2022-11-23T05:31:51;98370.25;;;10.72;78.71
71151;BME280;59071;42.138;24.768;2022-11-23T05:34:16;98381.94;;;10.71;79.65
71151;BME280;59071;42.138;24.768;2022-11-23T05:36:41;98389.22;;;10.76;78.98
71151;BME280;59071;42.138;24.768;2022-11-23T05:39:07;98385.16;;;10.73;79.09
71151;BME280;59071;42.138;24.768;2022-11-23T05:41:32;98374.00;;;10.88;78.68
71151;BME280;59071;42.138;24.768;2022-11-23T05:43:58;98368.22;;;10.91;79.07
71151;BME280;59071;42.138;24.768;2022-11-23T05:46:23;98358.53;;;10.85;78.34
71151;BME280;59071;42.138;24.768;2022-11-23T05:48:48;98360.78;;;10.93;78.46
71151;BME280;59071;42.138;24.768;2022-11-23T05:51:14;98361.75;;;10.87;79.21
71151;BME280;59071;42.138;24.768;2022-11-23T05:53:39;98349.03;;;10.61;79.45
71151;BME280;59071;42.138;24.768;2022-11-23T05:56:05;98376.28;;;10.96;78.41
71151;BME280;59071;42.138;24.768;2022-11-23T05:58:30;98366.81;;;10.72;79.46
71151;BME280;59071;42.138;24.768;2022-11-23T06:00:59;98367.16;;;10.92;78.37
71151;BME280;59071;42.138;24.768;2022-11-23T06:03:25;98359.09;;;10.87;78.58
71151;BME280;59071;42.138;24.768;2022-11-23T06:05:51;98367.25;;;10.98;78.39
71151;BME280;59071;42.138;24.768;2022-11-23T06:08:16;98370.09;;;11.59;76.77
71151;BME280;59071;42.138;24.768;2022-11-23T06:10:42;98370.91;;;11.76;75.40
71151;BME280;59071;42.138;24.768;2022-11-23T06:13:07;98368.59;;;12.19;73.74
71151;BME280;59071;42.138;24.768;2022-11-23T06:15:33;98369.38;;;12.41;72.73
71151;BME280;59071;42.138;24.768;2022-11-23T06:17:59;98349.50;;;12.76;70.11
71151;BME280;59071;42.138;24.768;2022-11-23T06:20:25;98350.13;;;12.88;70.15
71151;BME280;59071;42.138;24.768;2022-11-23T06:22:52;98367.50;;;13.18;69.33
71151;BME280;59071;42.138;24.768;2022-11-23T06:25:17;98368.88;;;13.21;69.17
71151;BME280;59071;42.138;24.768;2022-11-23T06:27:59;98376.84;;;13.16;68.96
71151;BME280;59071;42.138;24.768;2022-11-23T06:30:26;98384.19;;;13.30;68.19
71151;BME280;59071;42.138;24.768;2022-11-23T06:32:52;98376.31;;;13.14;69.06
71151;BME280;59071;42.138;24.768;2022-11-23T06:35:17;98373.75;;;12.97;69.98
71151;BME280;59071;42.138;24.768;2022-11-23T06:37:43;98384.06;;;12.88;70.20
71151;BME280;59071;42.138;24.768;2022-11-23T06:40:10;98393.63;;;13.11;69.46
71151;BME280;59071;42.138;24.768;2022-11-23T06:42:35;98402.41;;;13.06;69.88
71151;BME280;59071;42.138;24.768;2022-11-23T06:45:00;98409.72;;;12.67;71.55
71151;BME280;59071;42.138;24.768;2022-11-23T06:47:27;98406.66;;;13.07;69.87
71151;BME280;59071;42.138;24.768;2022-11-23T06:49:52;98406.88;;;13.01;70.54
71151;BME280;59071;42.138;24.768;2022-11-23T06:52:18;98394.72;;;12.61;71.96
71151;BME280;59071;42.138;24.768;2022-11-23T06:54:43;98413.34;;;12.83;71.56
71151;BME280;59071;42.138;24.768;2022-11-23T06:57:09;98408.78;;;12.78;71.99
71151;BME280;59071;42.138;24.768;2022-11-23T06:59:34;98397.56;;;13.03;70.53
71151;BME280;59071;42.138;24.768;2022-11-23T07:02:00;98398.06;;;13.27;70.13
71151;BME280;59071;42.138;24.768;2022-11-23T07:04:25;98398.50;;;12.65;71.96
71151;BME280;59071;42.138;24.768;2022-11-23T07:06:51;98404.78;;;13.03;71.15
71151;BME280;59071;42.138;24.768;2022-11-23T07:09:16;98404.41;;;13.21;70.46
71151;BME280;59071;42.138;24.768;2022-11-23T07:11:42;98402.50;;;13.17;70.53
71151;BME280;59071;42.138;24.768;2022-11-23T07:14:07;98401.38;;;13.40;69.64
71151;BME280;59071;42.138;24.768;2022-11-23T07:16:33;98415.81;;;13.71;68.96
71151;BME280;59071;42.138;24.768;2022-11-23T07:18:58;98415.34;;;13.79;68.52
71151;BME280;59071;42.138;24.768;2022-11-23T07:21:23;98410.97;;;14.11;67.71
71151;BME280;59071;42.138;24.768;2022-11-23T07:23:49;98412.16;;;14.30;66.76
71151;BME280;59071;42.138;24.768;2022-11-23T07:26:14;98417.56;;;14.40;66.60
71151;BME280;59071;42.138;24.768;2022-11-23T07:28:40;98418.59;;;14.34;66.48
71151;BME280;59071;42.138;24.768;2022-11-23T07:31:05;98421.53;;;14.33;66.47
71151;BME280;59071;42.138;24.768;2022-11-23T07:33:31;98417.41;;;14.57;66.83
71151;BME280;59071;42.138;24.768;2022-11-23T07:35:59;98422.03;;;14.82;65.70
71151;BME280;59071;42.138;24.768;2022-11-23T07:38:25;98437.09;;;14.99;65.18
71151;BME280;59071;42.138;24.768;2022-11-23T07:40:50;98450.19;;;14.90;64.55
71151;BME280;59071;42.138;24.768;2022-11-23T07:43:16;98439.75;;;15.04;64.31
71151;BME280;59071;42.138;24.768;2022-11-23T07:45:41;98441.88;;;14.81;65.86
71151;BME280;59071;42.138;24.768;2022-11-23T07:48:08;98439.75;;;15.04;64.66
71151;BME280;59071;42.138;24.768;2022-11-23T07:50:36;98444.59;;;15.02;65.03
71151;BME280;59071;42.138;24.768;2022-11-23T07:53:05;98445.69;;;15.16;64.44
71151;BME280;59071;42.138;24.768;2022-11-23T07:55:32;98431.78;;;15.14;64.77
71151;BME280;59071;42.138;24.768;2022-11-23T07:57:58;98438.91;;;14.83;65.78
71151;BME280;59071;42.138;24.768;2022-11-23T08:00:25;98450.75;;;14.44;67.66
71151;BME280;59071;42.138;24.768;2022-11-23T08:02:51;98445.66;;;14.38;68.67
71151;BME280;59071;42.138;24.768;2022-11-23T08:05:17;98441.25;;;14.69;67.80
71151;BME280;59071;42.138;24.768;2022-11-23T08:07:42;98446.69;;;14.90;67.20
71151;BME280;59071;42.138;24.768;2022-11-23T08:10:10;98447.81;;;14.99;67.38
71151;BME280;59071;42.138;24.768;2022-11-23T08:12:35;98449.97;;;15.07;66.85
71151;BME280;59071;42.138;24.768;2022-11-23T08:15:01;98458.31;;;15.31;66.16
71151;BME280;59071;42.138;24.768;2022-11-23T08:17:26;98451.13;;;15.57;65.96
71151;BME280;59071;42.138;24.768;2022-11-23T08:19:51;98448.19;;;15.74;64.97
71151;BME280;59071;42.138;24.768;2022-11-23T08:22:17;98458.91;;;15.69;65.00
71151;BME280;59071;42.138;24.768;2022-11-23T08:24:43;98456.50;;;15.73;64.64
71151;BME280;59071;42.138;24.768;2022-11-23T08:27:08;98455.19;;;15.80;64.33
71151;BME280;59071;42.138;24.768;2022-11-23T08:29:34;98462.38;;;15.49;65.13
71151;BME280;59071;42.138;24.768;2022-11-23T08:32:00;98458.38;;;15.52;65.16
71151;BME280;59071;42.138;24.768;2022-11-23T08:34:25;98468.47;;;15.19;66.62
71151;BME280;59071;42.138;24.768;2022-11-23T08:36:50;98464.38;;;14.85;67.10
71151;BME280;59071;42.138;24.768;2022-11-23T08:39:16;98456.25;;;14.65;68.47
71151;BME280;59071;42.138;24.768;2022-11-23T08:41:43;98447.88;;;15.30;67.17
71151;BME280;59071;42.138;24.768;2022-11-23T08:44:09;98438.22;;;15.49;65.66
71151;BME280;59071;42.138;24.768;2022-11-23T08:46:35;98448.47;;;15.88;64.49
71151;BME280;59071;42.138;24.768;2022-11-23T08:49:01;98441.72;;;15.70;64.85
71151;BME280;59071;42.138;24.768;2022-11-23T08:51:27;98435.03;;;15.62;65.05
71151;BME280;59071;42.138;24.768;2022-11-23T08:53:53;98424.81;;;15.29;66.54
71151;BME280;59071;42.138;24.768;2022-11-23T08:56:18;98443.09;;;15.78;64.33
71151;BME280;59071;42.138;24.768;2022-11-23T08:58:44;98432.38;;;15.83;65.05
71151;BME280;59071;42.138;24.768;2022-11-23T09:01:11;98428.03;;;15.67;65.12
71151;BME280;59071;42.138;24.768;2022-11-23T09:03:37;98429.13;;;15.96;63.40
71151;BME280;59071;42.138;24.768;2022-11-23T09:06:03;98434.22;;;15.72;64.48
71151;BME280;59071;42.138;24.768;2022-11-23T09:08:29;98439.59;;;15.88;64.04
71151;BME280;59071;42.138;24.768;2022-11-23T09:10:59;98427.53;;;15.70;64.27
71151;BME280;59071;42.138;24.768;2022-11-23T09:13:25;98424.31;;;15.88;63.83
71151;BME280;59071;42.138;24.768;2022-11-23T09:15:50;98418.91;;;16.24;62.38
71151;BME280;59071;42.138;24.768;2022-11-23T09:18:15;98412.50;;;15.94;63.36
71151;BME280;59071;42.138;24.768;2022-11-23T09:20:41;98411.19;;;15.87;64.11
71151;BME280;59071;42.138;24.768;2022-11-23T09:23:07;98415.91;;;16.26;62.61
71151;BME280;59071;42.138;24.768;2022-11-23T09:25:33;98405.13;;;16.41;62.25
71151;BME280;59071;42.138;24.768;2022-11-23T09:27:58;98413.47;;;16.39;62.65
71151;BME280;59071;42.138;24.768;2022-11-23T09:30:25;98407.00;;;16.51;62.07
71151;BME280;59071;42.138;24.768;2022-11-23T09:32:51;98387.00;;;16.77;60.87
71151;BME280;59071;42.138;24.768;2022-11-23T09:35:19;98383.06;;;17.09;59.94
71151;BME280;59071;42.138;24.768;2022-11-23T09:37:44;98388.38;;;17.19;59.57
71151;BME280;59071;42.138;24.768;2022-11-23T09:40:14;98378.84;;;17.32;58.92
71151;BME280;59071;42.138;24.768;2022-11-23T09:45:54;98371.22;;;17.15;59.10
71151;BME280;59071;42.138;24.768;2022-11-23T09:48:46;98375.34;;;17.66;58.11
71151;BME280;59071;42.138;24.768;2022-11-23T09:51:18;98371.72;;;17.81;58.01
71151;BME280;59071;42.138;24.768;2022-11-23T09:53:49;98364.09;;;17.93;57.57
71151;BME280;59071;42.138;24.768;2022-11-23T09:56:19;98365.81;;;17.84;57.60
71151;BME280;59071;42.138;24.768;2022-11-23T09:58:45;98364.59;;;17.66;57.73
71151;BME280;59071;42.138;24.768;2022-11-23T10:01:13;98364.22;;;18.07;56.67
71151;BME280;59071;42.138;24.768;2022-11-23T10:03:41;98364.84;;;18.23;56.36
71151;BME280;59071;42.138;24.768;2022-11-23T10:06:27;98357.91;;;18.41;55.50
71151;BME280;59071;42.138;24.768;2022-11-23T10:22:47;98348.47;;;17.95;57.03
71151;BME280;59071;42.138;24.768;2022-11-23T10:25:21;98339.56;;;18.43;55.72
71151;BME280;59071;42.138;24.768;2022-11-23T10:27:49;98342.94;;;18.73;54.67
71151;BME280;59071;42.138;24.768;2022-11-23T10:30:17;98338.81;;;18.81;54.01
71151;BME280;59071;42.138;24.768;2022-11-23T10:33:03;98338.06;;;18.94;53.99
71151;BME280;59071;42.138;24.768;2022-11-23T10:35:33;98343.88;;;19.20;52.72
71151;BME280;59071;42.138;24.768;2022-11-23T10:38:13;98351.28;;;19.28;52.89
71151;BME280;59071;42.138;24.768;2022-11-23T10:40:43;98342.19;;;19.24;53.07
71151;BME280;59071;42.138;24.768;2022-11-23T10:43:17;98358.66;;;19.23;53.38
71151;BME280;59071;42.138;24.768;2022-11-23T10:45:45;98348.69;;;19.23;53.61
71151;BME280;59071;42.138;24.768;2022-11-23T10:48:11;98336.91;;;19.19;53.36
71151;BME280;59071;42.138;24.768;2022-11-23T10:50:38;98345.09;;;18.95;54.06
71151;BME280;59071;42.138;24.768;2022-11-23T10:55:52;98333.63;;;19.03;54.21
71151;BME280;59071;42.138;24.768;2022-11-23T10:58:33;98331.53;;;19.66;53.00
71151;BME280;59071;42.138;24.768;2022-11-23T11:01:20;98321.97;;;19.41;52.27
71151;BME280;59071;42.138;24.768;2022-11-23T11:03:49;98336.44;;;19.31;53.19
71151;BME280;59071;42.138;24.768;2022-11-23T11:06:30;98340.91;;;19.22;53.68
71151;BME280;59071;42.138;24.768;2022-11-23T11:08:58;98343.72;;;19.30;53.76
71151;BME280;59071;42.138;24.768;2022-11-23T11:11:31;98348.00;;;18.99;54.66
71151;BME280;59071;42.138;24.768;2022-11-23T11:14:15;98339.50;;;19.24;54.02
71151;BME280;59071;42.138;24.768;2022-11-23T11:16:49;98340.69;;;19.18;53.42
71151;BME280;59071;42.138;24.768;2022-11-23T11:19:29;98343.41;;;19.32;53.94
71151;BME280;59071;42.138;24.768;2022-11-23T11:21:56;98333.31;;;19.24;53.42
71151;BME280;59071;42.138;24.768;2022-11-23T11:24:43;98333.97;;;19.48;53.10
71151;BME280;59071;42.138;24.768;2022-11-23T11:27:14;98329.94;;;19.65;52.91
71151;BME280;59071;42.138;24.768;2022-11-23T11:32:39;98329.94;;;19.32;53.04
71151;BME280;59071;42.138;24.768;2022-11-23T11:35:28;98337.47;;;18.78;54.64
71151;BME280;59071;42.138;24.768;2022-11-23T11:37:59;98329.34;;;19.35;53.41
71151;BME280;59071;42.138;24.768;2022-11-23T11:40:29;98322.66;;;19.79;52.54
71151;BME280;59071;42.138;24.768;2022-11-23T11:43:22;98327.41;;;20.01;51.95
71151;BME280;59071;42.138;24.768;2022-11-23T11:45:52;98326.56;;;20.01;50.49
71151;BME280;59071;42.138;24.768;2022-11-23T11:53:45;98315.28;;;19.38;51.14
71151;BME280;59071;42.138;24.768;2022-11-23T11:56:29;98317.22;;;19.51;51.39
71151;BME280;59071;42.138;24.768;2022-11-23T11:58:57;98331.59;;;19.61;51.65
71151;BME280;59071;42.138;24.768;2022-11-23T12:04:30;98346.63;;;19.67;51.54
71151;BME280;59071;42.138;24.768;2022-11-23T12:07:12;98348.38;;;20.04;50.69
71151;BME280;59071;42.138;24.768;2022-11-23T12:09:41;98343.78;;;18.92;53.61
71151;BME280;59071;42.138;24.768;2022-11-23T12:12:17;98337.78;;;19.14;52.35
71151;BME280;59071;42.138;24.768;2022-11-23T12:14:44;98333.84;;;19.07;52.64
71151;BME280;59071;42.138;24.768;2022-11-23T12:28:57;98337.50;;;19.96;50.35
71151;BME280;59071;42.138;24.768;2022-11-23T12:31:42;98333.16;;;20.08;50.01
71151;BME280;59071;42.138;24.768;2022-11-23T12:50:41;98353.97;;;20.08;49.80
71151;BME280;59071;42.138;24.768;2022-11-23T12:56:44;98357.59;;;20.17;49.38
71151;BME280;59071;42.138;24.768;2022-11-23T12:59:11;98349.50;;;20.03;49.36
71151;BME280;59071;42.138;24.768;2022-11-23T13:01:41;98343.88;;;20.14;49.39
71151;BME280;59071;42.138;24.768;2022-11-23T13:12:27;98366.16;;;19.45;50.58
71151;BME280;59071;42.138;24.768;2022-11-23T13:23:13;98354.84;;;19.89;50.01
71151;BME280;59071;42.138;24.768;2022-11-23T13:25:39;98363.16;;;19.93;49.62
71151;BME280;59071;42.138;24.768;2022-11-23T13:28:28;98360.75;;;19.78;49.40
71151;BME280;59071;42.138;24.768;2022-11-23T13:33:39;98362.00;;;19.33;50.53
71151;BME280;59071;42.138;24.768;2022-11-23T13:36:11;98367.19;;;19.30;50.64
71151;BME280;59071;42.138;24.768;2022-11-23T13:38:42;98371.97;;;19.19;50.91
71151;BME280;59071;42.138;24.768;2022-11-23T13:44:09;98365.09;;;18.70;52.49
71151;BME280;59071;42.138;24.768;2022-11-23T13:46:35;98364.59;;;18.44;53.15
71151;BME280;59071;42.138;24.768;2022-11-23T13:49:01;98366.03;;;18.12;54.06
71151;BME280;59071;42.138;24.768;2022-11-23T13:51:31;98364.97;;;17.84;55.14
71151;BME280;59071;42.138;24.768;2022-11-23T13:54:01;98365.75;;;18.13;54.60
71151;BME280;59071;42.138;24.768;2022-11-23T13:56:41;98368.47;;;18.13;54.57
71151;BME280;59071;42.138;24.768;2022-11-23T13:59:33;98366.44;;;17.71;55.75
71151;BME280;59071;42.138;24.768;2022-11-23T14:04:41;98370.94;;;17.81;55.20
71151;BME280;59071;42.138;24.768;2022-11-23T14:07:39;98376.97;;;17.96;55.40
71151;BME280;59071;42.138;24.768;2022-11-23T14:10:20;98370.13;;;17.80;55.54
71151;BME280;59071;42.138;24.768;2022-11-23T14:13:01;98367.47;;;17.75;55.96
71151;BME280;59071;42.138;24.768;2022-11-23T14:15:32;98359.41;;;18.04;54.76
71151;BME280;59071;42.138;24.768;2022-11-23T14:20:37;98370.25;;;17.65;56.47
71151;BME280;59071;42.138;24.768;2022-11-23T14:33:58;98396.41;;;18.17;55.09
71151;BME280;59071;42.138;24.768;2022-11-23T14:40:04;98401.63;;;18.09;55.31
71151;BME280;59071;42.138;24.768;2022-11-23T14:42:13;98405.81;;;17.91;55.80
71151;BME280;59071;42.138;24.768;2022-11-23T14:44:41;98408.88;;;17.84;56.28